sensor_id;sensor_type;location;lat;lon;timestamp;P1;durP1;ratioP1;P2;durP2;ratioP2
32292;SDS011;43233;48.608;8.838;2023-05-07T00:01:14;22.50;;;6.37;;
32292;SDS011;43233;48.608;8.838;2023-05-07T00:03:40;20.63;;;6.77;;
32292;SDS011;43233;48.608;8.838;2023-05-07T00:06:05;23.87;;;7.90;;
32292;SDS011;43233;48.608;8.838;2023-05-07T00:08:31;18.07;;;6.90;;
32292;SDS011;43233;48.608;8.838;2023-05-07T00:10:56;15.20;;;6.87;;
32292;SDS011;43233;48.608;8.838;2023-05-07T00:13:22;25.80;;;7.87;;
32292;SDS011;43233;48.608;8.838;2023-05-07T00:15:47;20.03;;;8.17;;
32292;SDS011;43233;48.608;8.838;2023-05-07T00:18:13;15.30;;;6.17;;
32292;SDS011;43233;48.608;8.838;2023-05-07T00:20:39;21.13;;;6.80;;
32292;SDS011;43233;48.608;8.838;2023-05-07T00:23:04;14.17;;;5.50;;
32292;SDS011;43233;48.608;8.838;2023-05-07T00:25:30;16.27;;;5.27;;
32292;SDS011;43233;48.608;8.838;2023-05-07T00:27:56;3.90;;;3.30;;
32292;SDS011;43233;48.608;8.838;2023-05-07T00:30:27;4.00;;;2.67;;
32292;SDS011;43233;48.608;8.838;2023-05-07T00:32:53;3.50;;;2.80;;
32292;SDS011;43233;48.608;8.838;2023-05-07T00:35:19;7.33;;;3.87;;
32292;SDS011;43233;48.608;8.838;2023-05-07T00:37:44;11.93;;;5.60;;
32292;SDS011;43233;48.608;8.838;2023-05-07T00:40:10;14.30;;;5.70;;
32292;SDS011;43233;48.608;8.838;2023-05-07T00:42:36;36.53;;;8.87;;
32292;SDS011;43233;48.608;8.838;2023-05-07T00:45:02;21.00;;;7.47;;
32292;SDS011;43233;48.608;8.838;2023-05-07T00:47:28;18.37;;;7.13;;
32292;SDS011;43233;48.608;8.838;2023-05-07T00:49:53;30.33;;;7.77;;
32292;SDS011;43233;48.608;8.838;2023-05-07T00:52:19;28.70;;;8.80;;
32292;SDS011;43233;48.608;8.838;2023-05-07T00:54:46;14.70;;;5.60;;
32292;SDS011;43233;48.608;8.838;2023-05-07T00:57:12;5.13;;;3.63;;
32292;SDS011;43233;48.608;8.838;2023-05-07T00:59:40;10.07;;;4.50;;
32292;SDS011;43233;48.608;8.838;2023-05-07T01:02:06;21.70;;;6.70;;
32292;SDS011;43233;48.608;8.838;2023-05-07T01:04:32;27.17;;;8.33;;
32292;SDS011;43233;48.608;8.838;2023-05-07T01:06:58;30.13;;;7.70;;
32292;SDS011;43233;48.608;8.838;2023-05-07T01:09:25;20.83;;;8.20;;
32292;SDS011;43233;48.608;8.838;2023-05-07T01:11:53;23.13;;;8.30;;
32292;SDS011;43233;48.608;8.838;2023-05-07T01:14:19;18.43;;;7.90;;
32292;SDS011;43233;48.608;8.838;2023-05-07T01:16:45;21.80;;;7.87;;
32292;SDS011;43233;48.608;8.838;2023-05-07T01:19:12;26.00;;;9.97;;
32292;SDS011;43233;48.608;8.838;2023-05-07T01:21:42;22.40;;;7.40;;
32292;SDS011;43233;48.608;8.838;2023-05-07T01:24:11;26.43;;;9.40;;
32292;SDS011;43233;48.608;8.838;2023-05-07T01:26:37;14.90;;;6.73;;
32292;SDS011;43233;48.608;8.838;2023-05-07T01:29:03;27.40;;;8.40;;
32292;SDS011;43233;48.608;8.838;2023-05-07T01:31:29;30.47;;;9.70;;
32292;SDS011;43233;48.608;8.838;2023-05-07T01:33:55;33.27;;;10.20;;
32292;SDS011;43233;48.608;8.838;2023-05-07T01:36:22;26.60;;;8.60;;
32292;SDS011;43233;48.608;8.838;2023-05-07T01:38:52;20.90;;;8.63;;
32292;SDS011;43233;48.608;8.838;2023-05-07T01:41:18;14.17;;;5.63;;
32292;SDS011;43233;48.608;8.838;2023-05-07T01:43:44;11.37;;;5.87;;
32292;SDS011;43233;48.608;8.838;2023-05-07T01:46:11;19.10;;;7.50;;
32292;SDS011;43233;48.608;8.838;2023-05-07T01:48:38;27.10;;;9.30;;
32292;SDS011;43233;48.608;8.838;2023-05-07T01:51:04;15.10;;;6.67;;
32292;SDS011;43233;48.608;8.838;2023-05-07T01:53:40;19.40;;;7.83;;
32292;SDS011;43233;48.608;8.838;2023-05-07T01:56:06;32.93;;;8.70;;
32292;SDS011;43233;48.608;8.838;2023-05-07T01:58:32;26.07;;;8.47;;
32292;SDS011;43233;48.608;8.838;2023-05-07T02:00:58;23.20;;;7.33;;
32292;SDS011;43233;48.608;8.838;2023-05-07T02:03:23;24.07;;;7.77;;
32292;SDS011;43233;48.608;8.838;2023-05-07T02:05:49;23.00;;;7.13;;
32292;SDS011;43233;48.608;8.838;2023-05-07T02:08:15;23.43;;;7.53;;
32292;SDS011;43233;48.608;8.838;2023-05-07T02:10:40;21.07;;;8.00;;
32292;SDS011;43233;48.608;8.838;2023-05-07T02:13:06;14.33;;;6.37;;
32292;SDS011;43233;48.608;8.838;2023-05-07T02:15:31;15.90;;;6.40;;
32292;SDS011;43233;48.608;8.838;2023-05-07T02:17:58;21.67;;;6.50;;
32292;SDS011;43233;48.608;8.838;2023-05-07T02:20:39;17.50;;;6.70;;
32292;SDS011;43233;48.608;8.838;2023-05-07T02:23:05;24.43;;;8.57;;
32292;SDS011;43233;48.608;8.838;2023-05-07T02:25:30;21.57;;;6.27;;
32292;SDS011;43233;48.608;8.838;2023-05-07T02:27:56;11.93;;;5.73;;
32292;SDS011;43233;48.608;8.838;2023-05-07T02:30:22;22.43;;;8.27;;
32292;SDS011;43233;48.608;8.838;2023-05-07T02:32:48;34.73;;;9.57;;
32292;SDS011;43233;48.608;8.838;2023-05-07T02:35:14;34.57;;;8.97;;
32292;SDS011;43233;48.608;8.838;2023-05-07T02:37:40;14.23;;;6.10;;
32292;SDS011;43233;48.608;8.838;2023-05-07T02:40:06;12.73;;;6.47;;
32292;SDS011;43233;48.608;8.838;2023-05-07T02:42:32;16.40;;;6.20;;
32292;SDS011;43233;48.608;8.838;2023-05-07T02:44:57;14.10;;;5.60;;
32292;SDS011;43233;48.608;8.838;2023-05-07T02:47:23;27.97;;;6.40;;
32292;SDS011;43233;48.608;8.838;2023-05-07T02:49:49;22.47;;;6.00;;
32292;SDS011;43233;48.608;8.838;2023-05-07T02:52:14;27.90;;;9.10;;
32292;SDS011;43233;48.608;8.838;2023-05-07T02:54:40;25.20;;;9.53;;
32292;SDS011;43233;48.608;8.838;2023-05-07T02:57:06;27.50;;;7.63;;
32292;SDS011;43233;48.608;8.838;2023-05-07T02:59:31;15.30;;;7.40;;
32292;SDS011;43233;48.608;8.838;2023-05-07T03:01:57;16.87;;;6.20;;
32292;SDS011;43233;48.608;8.838;2023-05-07T03:04:23;14.23;;;5.40;;
32292;SDS011;43233;48.608;8.838;2023-05-07T03:06:48;5.80;;;3.77;;
32292;SDS011;43233;48.608;8.838;2023-05-07T03:09:14;4.80;;;3.43;;
32292;SDS011;43233;48.608;8.838;2023-05-07T03:11:39;3.53;;;3.23;;
32292;SDS011;43233;48.608;8.838;2023-05-07T03:14:05;4.17;;;3.57;;
32292;SDS011;43233;48.608;8.838;2023-05-07T03:16:31;3.60;;;3.30;;
32292;SDS011;43233;48.608;8.838;2023-05-07T03:18:56;6.23;;;3.60;;
32292;SDS011;43233;48.608;8.838;2023-05-07T03:21:22;5.03;;;3.50;;
32292;SDS011;43233;48.608;8.838;2023-05-07T03:23:47;4.20;;;3.80;;
32292;SDS011;43233;48.608;8.838;2023-05-07T03:26:13;3.77;;;3.47;;
32292;SDS011;43233;48.608;8.838;2023-05-07T03:28:38;16.57;;;8.23;;
32292;SDS011;43233;48.608;8.838;2023-05-07T03:31:04;23.27;;;10.27;;
32292;SDS011;43233;48.608;8.838;2023-05-07T03:33:32;15.93;;;6.40;;
32292;SDS011;43233;48.608;8.838;2023-05-07T03:35:58;8.53;;;4.83;;
32292;SDS011;43233;48.608;8.838;2023-05-07T03:38:24;15.90;;;4.80;;
32292;SDS011;43233;48.608;8.838;2023-05-07T03:40:50;11.47;;;4.80;;
32292;SDS011;43233;48.608;8.838;2023-05-07T03:43:15;7.37;;;4.87;;
32292;SDS011;43233;48.608;8.838;2023-05-07T03:45:41;11.20;;;5.80;;
32292;SDS011;43233;48.608;8.838;2023-05-07T03:48:07;14.30;;;6.87;;
32292;SDS011;43233;48.608;8.838;2023-05-07T03:50:32;12.63;;;6.47;;
32292;SDS011;43233;48.608;8.838;2023-05-07T03:52:58;16.53;;;7.60;;
32292;SDS011;43233;48.608;8.838;2023-05-07T03:55:24;11.00;;;5.97;;
32292;SDS011;43233;48.608;8.838;2023-05-07T03:57:50;5.43;;;4.43;;
32292;SDS011;43233;48.608;8.838;2023-05-07T04:00:15;5.30;;;4.10;;
32292;SDS011;43233;48.608;8.838;2023-05-07T04:02:41;4.80;;;3.20;;
32292;SDS011;43233;48.608;8.838;2023-05-07T04:05:07;4.33;;;3.87;;
32292;SDS011;43233;48.608;8.838;2023-05-07T04:07:33;4.03;;;3.73;;
32292;SDS011;43233;48.608;8.838;2023-05-07T04:09:58;4.50;;;3.50;;
32292;SDS011;43233;48.608;8.838;2023-05-07T04:12:24;4.53;;;2.93;;
32292;SDS011;43233;48.608;8.838;2023-05-07T04:14:49;4.37;;;3.53;;
32292;SDS011;43233;48.608;8.838;2023-05-07T04:17:15;3.53;;;3.33;;
32292;SDS011;43233;48.608;8.838;2023-05-07T04:19:41;3.87;;;3.57;;
32292;SDS011;43233;48.608;8.838;2023-05-07T04:22:10;9.10;;;5.00;;
32292;SDS011;43233;48.608;8.838;2023-05-07T04:24:37;12.30;;;5.47;;
32292;SDS011;43233;48.608;8.838;2023-05-07T04:27:02;9.30;;;4.80;;
32292;SDS011;43233;48.608;8.838;2023-05-07T04:29:28;4.23;;;3.43;;
32292;SDS011;43233;48.608;8.838;2023-05-07T04:31:54;3.73;;;3.43;;
32292;SDS011;43233;48.608;8.838;2023-05-07T04:34:21;3.40;;;3.20;;
32292;SDS011;43233;48.608;8.838;2023-05-07T04:36:47;3.63;;;3.30;;
32292;SDS011;43233;48.608;8.838;2023-05-07T04:39:13;5.23;;;3.60;;
32292;SDS011;43233;48.608;8.838;2023-05-07T04:41:41;8.93;;;4.10;;
32292;SDS011;43233;48.608;8.838;2023-05-07T04:44:07;15.40;;;5.50;;
32292;SDS011;43233;48.608;8.838;2023-05-07T04:46:34;4.00;;;3.60;;
32292;SDS011;43233;48.608;8.838;2023-05-07T04:48:59;4.73;;;3.73;;
32292;SDS011;43233;48.608;8.838;2023-05-07T04:51:25;4.87;;;3.90;;
32292;SDS011;43233;48.608;8.838;2023-05-07T04:53:51;8.03;;;4.00;;
32292;SDS011;43233;48.608;8.838;2023-05-07T04:56:17;3.63;;;3.30;;
32292;SDS011;43233;48.608;8.838;2023-05-07T04:58:42;6.70;;;3.90;;
32292;SDS011;43233;48.608;8.838;2023-05-07T05:01:08;5.20;;;3.67;;
32292;SDS011;43233;48.608;8.838;2023-05-07T05:03:34;3.93;;;3.63;;
32292;SDS011;43233;48.608;8.838;2023-05-07T05:05:59;7.00;;;4.20;;
32292;SDS011;43233;48.608;8.838;2023-05-07T05:08:25;6.93;;;3.97;;
32292;SDS011;43233;48.608;8.838;2023-05-07T05:10:51;6.07;;;4.23;;
32292;SDS011;43233;48.608;8.838;2023-05-07T05:13:17;4.53;;;4.03;;
32292;SDS011;43233;48.608;8.838;2023-05-07T05:15:42;7.70;;;4.27;;
32292;SDS011;43233;48.608;8.838;2023-05-07T05:18:08;2.90;;;2.70;;
32292;SDS011;43233;48.608;8.838;2023-05-07T05:20:34;3.23;;;3.00;;
32292;SDS011;43233;48.608;8.838;2023-05-07T05:23:00;3.40;;;3.20;;
32292;SDS011;43233;48.608;8.838;2023-05-07T05:25:26;3.33;;;3.10;;
32292;SDS011;43233;48.608;8.838;2023-05-07T05:27:52;3.87;;;3.57;;
32292;SDS011;43233;48.608;8.838;2023-05-07T05:30:18;2.93;;;2.73;;
32292;SDS011;43233;48.608;8.838;2023-05-07T05:32:43;4.27;;;3.40;;
32292;SDS011;43233;48.608;8.838;2023-05-07T05:35:09;4.17;;;3.77;;
32292;SDS011;43233;48.608;8.838;2023-05-07T05:37:35;4.80;;;3.60;;
32292;SDS011;43233;48.608;8.838;2023-05-07T05:40:01;3.90;;;3.60;;
32292;SDS011;43233;48.608;8.838;2023-05-07T05:42:26;4.97;;;3.33;;
32292;SDS011;43233;48.608;8.838;2023-05-07T05:44:52;3.90;;;3.40;;
32292;SDS011;43233;48.608;8.838;2023-05-07T05:47:18;3.90;;;3.60;;
32292;SDS011;43233;48.608;8.838;2023-05-07T05:49:43;3.73;;;3.33;;
32292;SDS011;43233;48.608;8.838;2023-05-07T05:52:09;3.23;;;2.93;;
32292;SDS011;43233;48.608;8.838;2023-05-07T05:54:37;3.83;;;3.27;;
32292;SDS011;43233;48.608;8.838;2023-05-07T05:57:03;5.30;;;3.10;;
32292;SDS011;43233;48.608;8.838;2023-05-07T05:59:29;3.13;;;2.90;;
32292;SDS011;43233;48.608;8.838;2023-05-07T06:01:55;3.33;;;3.03;;
32292;SDS011;43233;48.608;8.838;2023-05-07T06:04:21;2.97;;;2.77;;
32292;SDS011;43233;48.608;8.838;2023-05-07T06:06:46;3.00;;;2.80;;
32292;SDS011;43233;48.608;8.838;2023-05-07T06:09:12;3.93;;;3.33;;
32292;SDS011;43233;48.608;8.838;2023-05-07T06:11:37;3.80;;;3.27;;
32292;SDS011;43233;48.608;8.838;2023-05-07T06:14:04;4.23;;;3.73;;
32292;SDS011;43233;48.608;8.838;2023-05-07T06:16:30;3.13;;;2.93;;
32292;SDS011;43233;48.608;8.838;2023-05-07T06:18:55;3.30;;;3.10;;
32292;SDS011;43233;48.608;8.838;2023-05-07T06:21:21;4.20;;;3.90;;
32292;SDS011;43233;48.608;8.838;2023-05-07T06:23:47;3.83;;;3.50;;
32292;SDS011;43233;48.608;8.838;2023-05-07T06:26:12;3.40;;;3.20;;
32292;SDS011;43233;48.608;8.838;2023-05-07T06:28:38;5.00;;;3.53;;
32292;SDS011;43233;48.608;8.838;2023-05-07T06:31:13;3.53;;;3.33;;
32292;SDS011;43233;48.608;8.838;2023-05-07T06:33:40;4.80;;;4.37;;
32292;SDS011;43233;48.608;8.838;2023-05-07T06:36:06;3.53;;;3.23;;
32292;SDS011;43233;48.608;8.838;2023-05-07T06:38:32;3.63;;;3.43;;
32292;SDS011;43233;48.608;8.838;2023-05-07T06:40:57;3.37;;;3.17;;
32292;SDS011;43233;48.608;8.838;2023-05-07T06:43:23;3.73;;;3.43;;
32292;SDS011;43233;48.608;8.838;2023-05-07T06:45:49;4.43;;;4.10;;
32292;SDS011;43233;48.608;8.838;2023-05-07T06:48:14;3.50;;;3.20;;
32292;SDS011;43233;48.608;8.838;2023-05-07T06:50:41;6.23;;;4.10;;
32292;SDS011;43233;48.608;8.838;2023-05-07T06:53:07;5.57;;;3.77;;
32292;SDS011;43233;48.608;8.838;2023-05-07T06:55:32;3.77;;;3.47;;
32292;SDS011;43233;48.608;8.838;2023-05-07T06:57:58;4.07;;;3.43;;
32292;SDS011;43233;48.608;8.838;2023-05-07T07:00:26;4.03;;;3.70;;
32292;SDS011;43233;48.608;8.838;2023-05-07T07:02:53;5.37;;;4.17;;
32292;SDS011;43233;48.608;8.838;2023-05-07T07:05:19;5.23;;;4.10;;
32292;SDS011;43233;48.608;8.838;2023-05-07T07:07:45;4.00;;;3.60;;
32292;SDS011;43233;48.608;8.838;2023-05-07T07:10:17;5.30;;;3.97;;
32292;SDS011;43233;48.608;8.838;2023-05-07T07:12:44;4.97;;;4.37;;
32292;SDS011;43233;48.608;8.838;2023-05-07T07:15:10;3.90;;;3.50;;
32292;SDS011;43233;48.608;8.838;2023-05-07T07:17:36;4.50;;;4.10;;
32292;SDS011;43233;48.608;8.838;2023-05-07T07:20:02;5.23;;;3.60;;
32292;SDS011;43233;48.608;8.838;2023-05-07T07:22:28;3.73;;;3.30;;
32292;SDS011;43233;48.608;8.838;2023-05-07T07:24:53;6.17;;;4.00;;
32292;SDS011;43233;48.608;8.838;2023-05-07T07:27:19;3.40;;;3.10;;
32292;SDS011;43233;48.608;8.838;2023-05-07T07:29:45;5.40;;;3.80;;
32292;SDS011;43233;48.608;8.838;2023-05-07T07:32:13;4.33;;;3.13;;
32292;SDS011;43233;48.608;8.838;2023-05-07T07:34:39;3.80;;;3.50;;
32292;SDS011;43233;48.608;8.838;2023-05-07T07:37:04;3.67;;;3.37;;
32292;SDS011;43233;48.608;8.838;2023-05-07T07:39:34;3.77;;;3.47;;
32292;SDS011;43233;48.608;8.838;2023-05-07T07:42:02;7.43;;;3.53;;
32292;SDS011;43233;48.608;8.838;2023-05-07T07:44:28;4.07;;;3.70;;
32292;SDS011;43233;48.608;8.838;2023-05-07T07:46:53;4.40;;;3.20;;
32292;SDS011;43233;48.608;8.838;2023-05-07T07:49:19;4.07;;;3.50;;
32292;SDS011;43233;48.608;8.838;2023-05-07T07:51:45;4.10;;;3.80;;
32292;SDS011;43233;48.608;8.838;2023-05-07T07:54:11;3.57;;;3.27;;
32292;SDS011;43233;48.608;8.838;2023-05-07T07:56:36;3.20;;;3.00;;
32292;SDS011;43233;48.608;8.838;2023-05-07T07:59:02;2.83;;;2.60;;
32292;SDS011;43233;48.608;8.838;2023-05-07T08:01:31;3.30;;;3.00;;
32292;SDS011;43233;48.608;8.838;2023-05-07T08:03:57;3.10;;;2.90;;
32292;SDS011;43233;48.608;8.838;2023-05-07T08:06:24;3.23;;;3.03;;
32292;SDS011;43233;48.608;8.838;2023-05-07T08:08:50;9.80;;;3.50;;
32292;SDS011;43233;48.608;8.838;2023-05-07T08:11:16;6.33;;;3.77;;
32292;SDS011;43233;48.608;8.838;2023-05-07T08:13:42;4.00;;;3.70;;
32292;SDS011;43233;48.608;8.838;2023-05-07T08:16:08;3.83;;;3.23;;
32292;SDS011;43233;48.608;8.838;2023-05-07T08:18:34;4.37;;;4.00;;
32292;SDS011;43233;48.608;8.838;2023-05-07T08:21:00;4.20;;;3.80;;
32292;SDS011;43233;48.608;8.838;2023-05-07T08:23:26;8.13;;;3.37;;
32292;SDS011;43233;48.608;8.838;2023-05-07T08:25:52;3.70;;;3.40;;
32292;SDS011;43233;48.608;8.838;2023-05-07T08:28:18;3.90;;;3.53;;
32292;SDS011;43233;48.608;8.838;2023-05-07T08:30:44;3.00;;;2.80;;
32292;SDS011;43233;48.608;8.838;2023-05-07T08:33:10;2.90;;;2.70;;
32292;SDS011;43233;48.608;8.838;2023-05-07T08:35:36;4.10;;;3.70;;
32292;SDS011;43233;48.608;8.838;2023-05-07T08:38:01;6.00;;;3.70;;
32292;SDS011;43233;48.608;8.838;2023-05-07T08:40:27;3.60;;;3.30;;
32292;SDS011;43233;48.608;8.838;2023-05-07T08:42:55;4.73;;;3.27;;
32292;SDS011;43233;48.608;8.838;2023-05-07T08:45:22;3.90;;;3.50;;
32292;SDS011;43233;48.608;8.838;2023-05-07T08:47:50;3.40;;;3.10;;
32292;SDS011;43233;48.608;8.838;2023-05-07T08:50:20;3.10;;;2.90;;
32292;SDS011;43233;48.608;8.838;2023-05-07T08:52:47;3.73;;;3.43;;
32292;SDS011;43233;48.608;8.838;2023-05-07T08:55:13;3.70;;;3.00;;
32292;SDS011;43233;48.608;8.838;2023-05-07T08:57:39;3.73;;;3.03;;
32292;SDS011;43233;48.608;8.838;2023-05-07T09:00:05;4.00;;;3.10;;
32292;SDS011;43233;48.608;8.838;2023-05-07T09:02:32;3.20;;;3.00;;
32292;SDS011;43233;48.608;8.838;2023-05-07T09:05:00;4.20;;;3.57;;
32292;SDS011;43233;48.608;8.838;2023-05-07T09:07:25;4.30;;;3.27;;
32292;SDS011;43233;48.608;8.838;2023-05-07T09:09:52;3.77;;;2.70;;
32292;SDS011;43233;48.608;8.838;2023-05-07T09:12:20;3.27;;;2.93;;
32292;SDS011;43233;48.608;8.838;2023-05-07T09:14:49;6.70;;;2.63;;
32292;SDS011;43233;48.608;8.838;2023-05-07T09:17:15;2.63;;;2.43;;
32292;SDS011;43233;48.608;8.838;2023-05-07T09:19:42;3.40;;;2.70;;
32292;SDS011;43233;48.608;8.838;2023-05-07T09:22:11;2.50;;;2.27;;
32292;SDS011;43233;48.608;8.838;2023-05-07T09:24:38;8.20;;;2.03;;
32292;SDS011;43233;48.608;8.838;2023-05-07T09:27:04;3.20;;;2.90;;
32292;SDS011;43233;48.608;8.838;2023-05-07T09:29:30;6.03;;;3.37;;
32292;SDS011;43233;48.608;8.838;2023-05-07T09:32:05;4.27;;;2.70;;
32292;SDS011;43233;48.608;8.838;2023-05-07T09:34:32;2.73;;;2.53;;
32292;SDS011;43233;48.608;8.838;2023-05-07T09:37:04;3.30;;;2.67;;
32292;SDS011;43233;48.608;8.838;2023-05-07T09:42:10;5.50;;;2.73;;
32292;SDS011;43233;48.608;8.838;2023-05-07T09:44:40;4.07;;;3.10;;
32292;SDS011;43233;48.608;8.838;2023-05-07T09:47:06;3.40;;;3.10;;
32292;SDS011;43233;48.608;8.838;2023-05-07T09:49:36;5.10;;;3.30;;
32292;SDS011;43233;48.608;8.838;2023-05-07T09:52:04;2.87;;;2.70;;
32292;SDS011;43233;48.608;8.838;2023-05-07T09:54:32;3.90;;;3.60;;
32292;SDS011;43233;48.608;8.838;2023-05-07T09:56:59;11.43;;;3.50;;
32292;SDS011;43233;48.608;8.838;2023-05-07T09:59:27;3.10;;;2.90;;
32292;SDS011;43233;48.608;8.838;2023-05-07T10:01:56;3.43;;;3.13;;
32292;SDS011;43233;48.608;8.838;2023-05-07T10:04:23;2.90;;;2.70;;
32292;SDS011;43233;48.608;8.838;2023-05-07T10:06:53;2.97;;;2.77;;
32292;SDS011;43233;48.608;8.838;2023-05-07T10:09:20;8.00;;;2.93;;
32292;SDS011;43233;48.608;8.838;2023-05-07T10:11:46;7.13;;;2.30;;
32292;SDS011;43233;48.608;8.838;2023-05-07T10:14:14;2.50;;;2.20;;
32292;SDS011;43233;48.608;8.838;2023-05-07T10:16:40;2.50;;;2.23;;
32292;SDS011;43233;48.608;8.838;2023-05-07T10:19:07;3.13;;;2.83;;
32292;SDS011;43233;48.608;8.838;2023-05-07T10:21:39;2.30;;;2.10;;
32292;SDS011;43233;48.608;8.838;2023-05-07T10:24:09;3.13;;;2.10;;
32292;SDS011;43233;48.608;8.838;2023-05-07T10:26:45;3.30;;;2.00;;
32292;SDS011;43233;48.608;8.838;2023-05-07T10:29:16;2.63;;;2.33;;
32292;SDS011;43233;48.608;8.838;2023-05-07T10:34:54;2.17;;;2.03;;
32292;SDS011;43233;48.608;8.838;2023-05-07T10:37:23;2.33;;;2.23;;
32292;SDS011;43233;48.608;8.838;2023-05-07T10:39:50;3.70;;;2.20;;
32292;SDS011;43233;48.608;8.838;2023-05-07T10:42:17;2.70;;;2.33;;
32292;SDS011;43233;48.608;8.838;2023-05-07T10:44:43;2.63;;;2.30;;
32292;SDS011;43233;48.608;8.838;2023-05-07T10:47:13;2.23;;;1.70;;
32292;SDS011;43233;48.608;8.838;2023-05-07T10:54:44;2.87;;;2.07;;
32292;SDS011;43233;48.608;8.838;2023-05-07T11:00:04;1.87;;;1.77;;
32292;SDS011;43233;48.608;8.838;2023-05-07T11:07:57;4.30;;;2.20;;
32292;SDS011;43233;48.608;8.838;2023-05-07T11:13:15;2.00;;;1.90;;
32292;SDS011;43233;48.608;8.838;2023-05-07T11:15:42;3.63;;;2.43;;
32292;SDS011;43233;48.608;8.838;2023-05-07T11:18:15;3.50;;;2.70;;
32292;SDS011;43233;48.608;8.838;2023-05-07T11:26:03;2.27;;;2.10;;
32292;SDS011;43233;48.608;8.838;2023-05-07T11:28:31;2.43;;;1.77;;
32292;SDS011;43233;48.608;8.838;2023-05-07T11:31:07;2.40;;;2.23;;
32292;SDS011;43233;48.608;8.838;2023-05-07T11:33:34;6.03;;;2.23;;
32292;SDS011;43233;48.608;8.838;2023-05-07T11:36:04;12.93;;;1.90;;
32292;SDS011;43233;48.608;8.838;2023-05-07T11:38:36;3.83;;;1.80;;
32292;SDS011;43233;48.608;8.838;2023-05-07T11:41:03;2.30;;;2.10;;
32292;SDS011;43233;48.608;8.838;2023-05-07T11:43:32;2.00;;;1.90;;
32292;SDS011;43233;48.608;8.838;2023-05-07T11:46:05;2.40;;;2.20;;
32292;SDS011;43233;48.608;8.838;2023-05-07T11:48:32;6.00;;;2.73;;
32292;SDS011;43233;48.608;8.838;2023-05-07T11:53:24;8.47;;;4.60;;
32292;SDS011;43233;48.608;8.838;2023-05-07T11:55:57;9.77;;;4.27;;
32292;SDS011;43233;48.608;8.838;2023-05-07T11:58:24;5.43;;;3.17;;
32292;SDS011;43233;48.608;8.838;2023-05-07T12:00:53;10.80;;;4.33;;
32292;SDS011;43233;48.608;8.838;2023-05-07T12:03:22;2.43;;;2.23;;
32292;SDS011;43233;48.608;8.838;2023-05-07T12:05:47;2.10;;;1.80;;
32292;SDS011;43233;48.608;8.838;2023-05-07T12:08:14;10.57;;;2.10;;
32292;SDS011;43233;48.608;8.838;2023-05-07T12:10:43;2.80;;;2.20;;
32292;SDS011;43233;48.608;8.838;2023-05-07T12:13:19;5.50;;;3.10;;
32292;SDS011;43233;48.608;8.838;2023-05-07T12:15:46;2.30;;;2.10;;
32292;SDS011;43233;48.608;8.838;2023-05-07T12:18:16;2.30;;;2.10;;
32292;SDS011;43233;48.608;8.838;2023-05-07T12:20:42;3.20;;;2.40;;
32292;SDS011;43233;48.608;8.838;2023-05-07T12:23:08;4.43;;;2.43;;
32292;SDS011;43233;48.608;8.838;2023-05-07T12:25:35;9.40;;;2.57;;
32292;SDS011;43233;48.608;8.838;2023-05-07T12:28:03;4.60;;;2.37;;
32292;SDS011;43233;48.608;8.838;2023-05-07T12:30:31;3.60;;;2.30;;
32292;SDS011;43233;48.608;8.838;2023-05-07T12:32:57;2.97;;;2.10;;
32292;SDS011;43233;48.608;8.838;2023-05-07T12:35:36;15.67;;;3.00;;
32292;SDS011;43233;48.608;8.838;2023-05-07T12:38:07;3.10;;;2.43;;
32292;SDS011;43233;48.608;8.838;2023-05-07T12:40:40;2.03;;;1.93;;
32292;SDS011;43233;48.608;8.838;2023-05-07T12:43:18;3.57;;;2.40;;
32292;SDS011;43233;48.608;8.838;2023-05-07T12:45:53;10.83;;;4.70;;
32292;SDS011;43233;48.608;8.838;2023-05-07T12:48:21;7.13;;;5.07;;
32292;SDS011;43233;48.608;8.838;2023-05-07T12:50:51;4.90;;;3.30;;
32292;SDS011;43233;48.608;8.838;2023-05-07T12:53:19;3.30;;;2.23;;
32292;SDS011;43233;48.608;8.838;2023-05-07T12:55:47;3.00;;;2.27;;
32292;SDS011;43233;48.608;8.838;2023-05-07T12:58:17;12.90;;;3.33;;
32292;SDS011;43233;48.608;8.838;2023-05-07T13:00:49;5.20;;;2.80;;
32292;SDS011;43233;48.608;8.838;2023-05-07T13:03:23;2.93;;;2.60;;
32292;SDS011;43233;48.608;8.838;2023-05-07T13:05:53;4.00;;;2.60;;
32292;SDS011;43233;48.608;8.838;2023-05-07T13:08:27;6.40;;;2.57;;
32292;SDS011;43233;48.608;8.838;2023-05-07T13:10:56;4.70;;;2.43;;
32292;SDS011;43233;48.608;8.838;2023-05-07T13:13:29;4.83;;;2.80;;
32292;SDS011;43233;48.608;8.838;2023-05-07T13:15:56;3.63;;;3.30;;
32292;SDS011;43233;48.608;8.838;2023-05-07T13:18:22;3.90;;;3.00;;
32292;SDS011;43233;48.608;8.838;2023-05-07T13:20:49;3.70;;;2.93;;
32292;SDS011;43233;48.608;8.838;2023-05-07T13:23:14;2.67;;;2.50;;
32292;SDS011;43233;48.608;8.838;2023-05-07T13:25:40;8.20;;;3.17;;
32292;SDS011;43233;48.608;8.838;2023-05-07T13:28:06;3.77;;;3.10;;
32292;SDS011;43233;48.608;8.838;2023-05-07T13:30:32;7.33;;;3.80;;
32292;SDS011;43233;48.608;8.838;2023-05-07T13:32:57;4.10;;;2.60;;
32292;SDS011;43233;48.608;8.838;2023-05-07T13:35:23;5.00;;;2.83;;
32292;SDS011;43233;48.608;8.838;2023-05-07T13:37:49;7.70;;;3.77;;
32292;SDS011;43233;48.608;8.838;2023-05-07T13:40:15;3.67;;;2.57;;
32292;SDS011;43233;48.608;8.838;2023-05-07T13:42:40;3.00;;;2.80;;
32292;SDS011;43233;48.608;8.838;2023-05-07T13:45:06;6.40;;;3.40;;
32292;SDS011;43233;48.608;8.838;2023-05-07T13:47:33;5.60;;;3.00;;
32292;SDS011;43233;48.608;8.838;2023-05-07T13:49:59;3.80;;;3.20;;
32292;SDS011;43233;48.608;8.838;2023-05-07T13:52:24;3.00;;;2.80;;
32292;SDS011;43233;48.608;8.838;2023-05-07T13:54:50;3.10;;;2.80;;
32292;SDS011;43233;48.608;8.838;2023-05-07T13:57:17;8.27;;;3.17;;
32292;SDS011;43233;48.608;8.838;2023-05-07T13:59:43;4.93;;;2.67;;
32292;SDS011;43233;48.608;8.838;2023-05-07T14:02:09;3.50;;;2.93;;
32292;SDS011;43233;48.608;8.838;2023-05-07T14:04:34;3.37;;;2.97;;
32292;SDS011;43233;48.608;8.838;2023-05-07T14:07:00;2.20;;;2.10;;
32292;SDS011;43233;48.608;8.838;2023-05-07T14:09:26;2.70;;;2.27;;
32292;SDS011;43233;48.608;8.838;2023-05-07T14:11:52;2.50;;;2.03;;
32292;SDS011;43233;48.608;8.838;2023-05-07T14:14:18;2.50;;;2.30;;
32292;SDS011;43233;48.608;8.838;2023-05-07T14:16:44;11.63;;;2.50;;
32292;SDS011;43233;48.608;8.838;2023-05-07T14:19:10;6.27;;;2.20;;
32292;SDS011;43233;48.608;8.838;2023-05-07T14:21:36;2.77;;;2.47;;
32292;SDS011;43233;48.608;8.838;2023-05-07T14:24:02;4.27;;;3.27;;
32292;SDS011;43233;48.608;8.838;2023-05-07T14:26:28;2.00;;;1.90;;
32292;SDS011;43233;48.608;8.838;2023-05-07T14:28:54;2.80;;;2.57;;
32292;SDS011;43233;48.608;8.838;2023-05-07T14:31:22;3.83;;;3.30;;
32292;SDS011;43233;48.608;8.838;2023-05-07T14:33:48;3.50;;;3.20;;
32292;SDS011;43233;48.608;8.838;2023-05-07T14:36:15;3.53;;;3.23;;
32292;SDS011;43233;48.608;8.838;2023-05-07T14:38:42;3.57;;;2.63;;
32292;SDS011;43233;48.608;8.838;2023-05-07T14:41:08;3.50;;;2.33;;
32292;SDS011;43233;48.608;8.838;2023-05-07T14:43:33;5.10;;;4.27;;
32292;SDS011;43233;48.608;8.838;2023-05-07T14:45:59;3.53;;;2.60;;
32292;SDS011;43233;48.608;8.838;2023-05-07T14:48:24;2.40;;;2.23;;
32292;SDS011;43233;48.608;8.838;2023-05-07T14:50:50;2.17;;;2.07;;
32292;SDS011;43233;48.608;8.838;2023-05-07T14:53:15;2.90;;;2.27;;
32292;SDS011;43233;48.608;8.838;2023-05-07T14:55:41;5.63;;;2.00;;
32292;SDS011;43233;48.608;8.838;2023-05-07T14:58:07;4.43;;;1.73;;
32292;SDS011;43233;48.608;8.838;2023-05-07T15:00:33;3.47;;;1.80;;
32292;SDS011;43233;48.608;8.838;2023-05-07T15:03:04;3.07;;;1.70;;
32292;SDS011;43233;48.608;8.838;2023-05-07T15:05:31;1.53;;;1.47;;
32292;SDS011;43233;48.608;8.838;2023-05-07T15:07:57;3.37;;;1.40;;
32292;SDS011;43233;48.608;8.838;2023-05-07T15:10:23;2.03;;;1.93;;